Pagrindinis puslapis
METAR-TAF:

METAR-TAF

Oro uostai :

Dėras, Vengrija

platuma: 47-37-28N, ilguma: 017-48-49E, Aukštis: 129 m

Dabartinis oras

Ataskaita buvo paskelbta 47 minutes, ne 19:45 UTC
Ramus vėjas
Temperatūra -4°C
Drėgmė 100%
Slėgis 1046 hPa
Matomumas: 0650 m
įšaldymas rūko

METAR: LHPR 201945Z AUTO 00000KT 0650 R30/0800N FZFG VV002 M04/M04 Q1046

Laikas: 21:32 (20:32 UTC)

Prognozė

Ataskaita buvo paskelbta 3 valandos ir 17 minutes, ne 17:15 UTC
Prognozė galioja nuo 20 metu 18 UTC su 21 metu 03 UTC
Vėjas 2 kt nuo kintamojo kryptimis
Matomumas: 0600 m
Apsiniaukę ne aukštis 1500 ft
įšaldymas rūko
Laikinai
nuo 20 metu 18 UTC su 21 metu 03 UTC
Matomumas: 0300 m
Apsiniaukę ne aukštis 500 ft
įšaldymas rūko
Tikimybė 30% :
Laikinai
nuo 20 metu 18 UTC su 21 metu 03 UTC
Matomumas: 0100 m
ne aukštis 200 ft
įšaldymas rūko

TAF: LHPR 201715Z 2018/2103 VRB02KT 0600 FZFG OVC015 TEMPO 2018/2103 0300 FZFG OVC005 PROB30 TEMPO 2018/2103 0100 FZFG VV002

Orai ataskaitas ir orų prognozės (METAR, TAF).

turimą stotys yra geltonos ir raudonos taškus žemėlapyje.

Perkelti pele per norėdami pamatyti stoties vardą.

Tada spustelėkite, norėdami matyti oro stebėjimo ir prognozės.

Norėdami pakeisti žemėlapį: spustelėkite ant žalios mygtukų su juodo kryžiaus žemyn,; žalią mygtuką su brūkšneliu, jei norite nutolinti; arba žalių rodyklių gretimoms žemėlapius.


METAR-TAF: